createdAt,value
2022-11-23T00:01:17.684Z,1.90
2022-11-23T00:03:45.446Z,1.80
2022-11-23T00:06:12.275Z,1.70
2022-11-23T00:08:39.026Z,1.70
2022-11-23T00:11:07.294Z,1.80
2022-11-23T00:13:34.540Z,1.80
2022-11-23T00:16:01.340Z,1.80
2022-11-23T00:18:28.570Z,1.70
2022-11-23T00:20:55.232Z,1.70
2022-11-23T00:23:21.926Z,1.70
2022-11-23T00:25:49.172Z,1.80
2022-11-23T00:28:17.136Z,1.60
2022-11-23T00:30:49.519Z,1.90
2022-11-23T00:33:16.717Z,1.50
2022-11-23T00:35:43.372Z,1.70
2022-11-23T00:38:10.062Z,1.70
2022-11-23T00:40:36.879Z,1.60
2022-11-23T00:43:03.608Z,1.70
2022-11-23T00:45:31.404Z,2.00
2022-11-23T00:47:58.141Z,1.90
2022-11-23T00:50:24.885Z,1.80
2022-11-23T00:52:51.626Z,1.80
2022-11-23T00:55:18.280Z,1.80
2022-11-23T00:57:45.004Z,2.30
2022-11-23T01:00:12.573Z,1.90
2022-11-23T01:02:39.892Z,1.80
2022-11-23T01:05:07.106Z,2.00
2022-11-23T01:07:33.802Z,1.90
2022-11-23T01:10:00.474Z,1.90
2022-11-23T01:12:28.883Z,2.10
2022-11-23T01:14:55.625Z,1.90
2022-11-23T01:17:22.390Z,1.80
2022-11-23T01:19:49.757Z,1.80
2022-11-23T01:22:16.509Z,1.80
2022-11-23T01:24:43.887Z,1.70
2022-11-23T01:27:10.575Z,1.70
2022-11-23T01:29:37.331Z,1.70
2022-11-23T01:32:04.191Z,1.70
2022-11-23T01:34:30.922Z,1.80
2022-11-23T01:36:58.465Z,1.80
2022-11-23T01:39:25.247Z,1.70
2022-11-23T01:41:51.866Z,1.80
2022-11-23T01:44:25.189Z,1.80
2022-11-23T01:46:51.883Z,1.90
2022-11-23T01:49:18.804Z,1.80
2022-11-23T01:51:48.429Z,1.70
2022-11-23T01:54:21.363Z,1.90
2022-11-23T01:56:51.144Z,2.00
2022-11-23T01:59:21.563Z,2.10
2022-11-23T02:01:48.322Z,2.10
2022-11-23T02:04:19.135Z,2.10
2022-11-23T02:06:47.104Z,2.10
2022-11-23T02:09:15.679Z,1.80
2022-11-23T02:11:42.535Z,2.20
2022-11-23T02:14:09.664Z,2.10
2022-11-23T02:16:37.981Z,2.40
2022-11-23T02:19:11.889Z,2.10
2022-11-23T02:21:40.132Z,2.20
2022-11-23T02:24:12.455Z,2.10
2022-11-23T02:26:40.533Z,2.20
2022-11-23T02:29:12.546Z,2.30
2022-11-23T02:31:39.507Z,2.30
2022-11-23T02:34:06.143Z,2.30
2022-11-23T02:36:39.128Z,2.30
2022-11-23T02:39:08.845Z,2.40
2022-11-23T02:41:37.892Z,2.40
2022-11-23T02:44:09.687Z,2.40
2022-11-23T02:46:36.683Z,2.40
2022-11-23T02:49:03.330Z,2.20
2022-11-23T02:51:30.154Z,2.50
2022-11-23T02:53:56.788Z,2.60
2022-11-23T02:56:23.427Z,2.40
2022-11-23T02:58:50.079Z,2.80
2022-11-23T03:01:17.551Z,2.40
2022-11-23T03:03:44.281Z,2.30
2022-11-23T03:06:10.994Z,2.30
2022-11-23T03:08:37.654Z,2.30
2022-11-23T03:11:05.696Z,2.20
2022-11-23T03:13:32.358Z,2.20
2022-11-23T03:15:59.095Z,2.10
2022-11-23T03:18:26.431Z,2.00
2022-11-23T03:20:53.086Z,2.10
2022-11-23T03:23:19.730Z,2.10
2022-11-23T03:25:54.048Z,2.10
2022-11-23T03:28:20.672Z,2.10
2022-11-23T03:30:47.368Z,2.00
2022-11-23T03:33:14.006Z,2.00
2022-11-23T03:35:41.388Z,1.90
2022-11-23T03:38:08.116Z,1.90
2022-11-23T03:40:34.879Z,1.90
2022-11-23T03:43:01.582Z,1.90
2022-11-23T03:45:28.224Z,2.20
2022-11-23T03:47:54.888Z,1.80
2022-11-23T03:50:21.776Z,1.90
2022-11-23T03:52:49.464Z,1.80
2022-11-23T03:55:16.308Z,1.80
2022-11-23T03:57:42.968Z,1.80
2022-11-23T04:00:10.508Z,1.80
2022-11-23T04:02:37.194Z,1.80
2022-11-23T04:05:04.297Z,1.80
2022-11-23T04:07:32.233Z,1.90
2022-11-23T04:09:59.613Z,1.30
2022-11-23T04:12:26.491Z,1.80
2022-11-23T04:14:53.157Z,1.80
2022-11-23T04:17:19.768Z,1.80
2022-11-23T04:19:46.503Z,1.80
2022-11-23T04:22:13.468Z,1.80
2022-11-23T04:24:40.117Z,1.90
2022-11-23T04:27:07.501Z,1.80
2022-11-23T04:32:01.555Z,1.80
2022-11-23T04:34:28.202Z,1.70
2022-11-23T04:36:54.920Z,1.70
2022-11-23T04:39:21.570Z,1.70
2022-11-23T04:41:48.226Z,1.70
2022-11-23T04:44:15.560Z,1.70
2022-11-23T04:46:42.262Z,1.70
2022-11-23T04:49:09.186Z,1.60
2022-11-23T04:51:35.886Z,1.60
2022-11-23T04:54:02.583Z,1.60
2022-11-23T04:56:29.280Z,1.70
2022-11-23T04:58:55.926Z,1.80
2022-11-23T05:01:23.229Z,1.80
2022-11-23T05:03:49.948Z,1.70
2022-11-23T05:06:16.655Z,1.70
2022-11-23T05:08:43.545Z,1.70
2022-11-23T05:11:10.313Z,1.60
2022-11-23T05:13:37.011Z,1.70
2022-11-23T05:16:04.176Z,1.60
2022-11-23T05:18:31.495Z,1.70
2022-11-23T05:20:58.206Z,1.70
2022-11-23T05:23:24.889Z,1.70
2022-11-23T05:25:51.609Z,1.70
2022-11-23T05:31:07.135Z,1.80
2022-11-23T05:33:35.309Z,1.90
2022-11-23T05:36:01.971Z,1.90
2022-11-23T05:38:28.773Z,1.90
2022-11-23T05:40:55.415Z,2.00
2022-11-23T05:43:22.124Z,1.90
2022-11-23T05:45:49.226Z,2.00
2022-11-23T05:48:16.049Z,1.90
2022-11-23T05:50:43.505Z,2.00
2022-11-23T05:53:10.233Z,2.00
2022-11-23T05:55:36.954Z,2.00
2022-11-23T05:58:03.645Z,1.00
2022-11-23T06:00:30.312Z,2.00
2022-11-23T06:02:59.754Z,2.20
2022-11-23T06:05:26.457Z,2.20
2022-11-23T06:07:53.949Z,2.00
2022-11-23T06:10:20.736Z,2.00
2022-11-23T06:12:49.241Z,2.00
2022-11-23T06:15:16.621Z,1.90
2022-11-23T06:17:43.363Z,2.20
2022-11-23T06:20:10.678Z,1.90
2022-11-23T06:22:37.317Z,1.90
2022-11-23T06:25:05.652Z,1.90
2022-11-23T06:27:32.362Z,1.80
2022-11-23T06:29:59.065Z,1.80
2022-11-23T06:32:25.706Z,2.00
2022-11-23T06:34:53.872Z,1.70
2022-11-23T06:37:22.292Z,1.70
2022-11-23T06:39:48.975Z,1.70
2022-11-23T06:42:37.882Z,1.60
2022-11-23T06:45:04.358Z,1.50
2022-11-23T06:47:31.023Z,1.00
2022-11-23T06:49:58.136Z,1.50
2022-11-23T06:52:24.799Z,1.60
2022-11-23T06:54:51.405Z,1.50
2022-11-23T06:57:18.701Z,1.90
2022-11-23T06:59:45.401Z,1.40
2022-11-23T07:02:12.138Z,1.40
2022-11-23T07:04:38.846Z,1.40
2022-11-23T07:07:07.482Z,1.40
2022-11-23T07:09:34.678Z,1.50
2022-11-23T07:12:01.793Z,1.40
2022-11-23T07:14:29.170Z,1.30
2022-11-23T07:16:56.038Z,1.40
2022-11-23T07:19:25.540Z,1.40
2022-11-23T07:21:52.253Z,1.30
2022-11-23T07:24:18.924Z,1.40
2022-11-23T07:26:45.656Z,1.40
2022-11-23T07:29:12.497Z,1.40
2022-11-23T07:31:40.257Z,1.50
2022-11-23T07:34:08.591Z,1.40
2022-11-23T07:36:35.900Z,1.40
2022-11-23T07:39:03.181Z,1.40
2022-11-23T07:41:29.965Z,1.40
2022-11-23T07:43:56.671Z,1.50
2022-11-23T07:46:23.454Z,1.50
2022-11-23T07:48:50.889Z,1.50
2022-11-23T07:51:19.392Z,1.50
2022-11-23T07:53:46.179Z,1.60
2022-11-23T07:56:12.889Z,1.40
2022-11-23T07:58:45.422Z,1.70
2022-11-23T08:01:17.220Z,1.80
2022-11-23T08:03:44.483Z,1.80
2022-11-23T08:06:12.530Z,1.90
2022-11-23T08:08:39.622Z,2.10
2022-11-23T08:11:07.337Z,2.10
2022-11-23T08:13:34.386Z,2.10
2022-11-23T08:16:01.211Z,2.20
2022-11-23T08:18:27.900Z,1.60
2022-11-23T08:20:54.848Z,2.50
2022-11-23T08:23:22.284Z,0.30
2022-11-23T08:25:48.970Z,2.70
2022-11-23T08:28:15.767Z,2.90
2022-11-23T08:30:42.499Z,2.80
2022-11-23T08:33:10.107Z,2.80
2022-11-23T08:35:38.742Z,2.80
2022-11-23T08:38:06.464Z,2.80
2022-11-23T08:40:35.059Z,3.00
2022-11-23T08:43:01.876Z,3.00
2022-11-23T08:45:29.167Z,3.10
2022-11-23T08:48:00.122Z,3.20
2022-11-23T08:50:28.482Z,3.20
2022-11-23T08:52:56.037Z,3.40
2022-11-23T08:55:22.879Z,3.30
2022-11-23T08:57:50.184Z,3.50
2022-11-23T09:00:17.396Z,3.70
2022-11-23T09:02:44.040Z,3.90
2022-11-23T09:05:10.732Z,4.10
2022-11-23T09:07:40.115Z,4.10
2022-11-23T09:10:07.718Z,4.10
2022-11-23T09:12:34.387Z,4.10
2022-11-23T09:15:01.843Z,4.10
2022-11-23T09:17:31.525Z,4.10
2022-11-23T09:19:58.159Z,4.10
2022-11-23T09:22:25.915Z,4.10
2022-11-23T09:24:54.166Z,4.30
2022-11-23T09:27:20.912Z,4.20
2022-11-23T09:29:47.604Z,4.40
2022-11-23T09:32:14.956Z,4.50
2022-11-23T09:34:41.735Z,4.60
2022-11-23T09:37:08.436Z,4.70
2022-11-23T09:39:35.107Z,4.80
2022-11-23T09:42:25.606Z,4.80
2022-11-23T09:45:13.951Z,4.80
2022-11-23T09:47:53.574Z,4.80
2022-11-23T09:50:26.534Z,4.90
2022-11-23T09:52:53.959Z,5.10
2022-11-23T09:55:32.108Z,5.20
2022-11-23T09:58:03.702Z,5.20
2022-11-23T10:00:37.428Z,5.20
2022-11-23T10:03:05.121Z,5.30
2022-11-23T10:05:38.159Z,5.20
2022-11-23T10:08:10.110Z,5.70
2022-11-23T10:10:42.889Z,5.30
2022-11-23T10:13:34.410Z,5.00
2022-11-23T10:16:23.269Z,5.30
2022-11-23T10:18:58.396Z,5.50
2022-11-23T10:21:34.515Z,5.60
2022-11-23T10:24:13.185Z,5.70
2022-11-23T10:26:43.749Z,5.80
2022-11-23T10:29:15.404Z,5.80
2022-11-23T10:31:46.855Z,5.80
2022-11-23T10:34:17.266Z,5.80
2022-11-23T10:36:43.921Z,5.90
2022-11-23T10:39:22.206Z,5.90
2022-11-23T10:41:50.350Z,5.90
2022-11-23T10:44:28.485Z,5.90
2022-11-23T10:46:55.131Z,6.00
2022-11-23T10:49:24.266Z,6.10
2022-11-23T10:51:56.539Z,6.20
2022-11-23T10:54:27.293Z,6.20
2022-11-23T10:56:55.150Z,6.30
2022-11-23T10:59:31.876Z,6.00
2022-11-23T11:02:16.441Z,6.10
2022-11-23T11:04:44.167Z,6.10
2022-11-23T11:07:24.160Z,6.20
2022-11-23T11:09:53.788Z,6.20
2022-11-23T11:12:20.801Z,6.30
2022-11-23T11:15:11.799Z,6.40
2022-11-23T11:17:41.307Z,6.40
2022-11-23T11:20:28.602Z,6.40
2022-11-23T11:22:56.996Z,5.70
2022-11-23T11:25:29.915Z,6.50
2022-11-23T11:27:58.056Z,6.60
2022-11-23T11:30:27.981Z,6.70
2022-11-23T11:33:02.137Z,6.60
2022-11-23T11:35:34.204Z,6.80
2022-11-23T11:38:07.837Z,6.90
2022-11-23T11:40:39.114Z,7.00
2022-11-23T11:43:09.923Z,7.10
2022-11-23T11:45:38.964Z,6.90
2022-11-23T11:48:13.262Z,6.90
2022-11-23T11:50:48.525Z,6.90
2022-11-23T11:53:20.301Z,6.80
2022-11-23T11:55:54.323Z,7.00
2022-11-23T11:58:24.106Z,7.20
2022-11-23T12:00:58.589Z,7.10
2022-11-23T12:03:37.843Z,7.10
2022-11-23T12:06:10.905Z,7.10
2022-11-23T12:08:45.905Z,7.00
2022-11-23T12:11:13.141Z,7.20
2022-11-23T12:13:44.001Z,7.30
2022-11-23T12:16:21.614Z,7.40
2022-11-23T12:19:03.222Z,7.80
2022-11-23T12:21:54.361Z,7.40
2022-11-23T12:24:35.553Z,7.40
2022-11-23T12:27:11.081Z,7.40
2022-11-23T12:29:52.787Z,7.50
2022-11-23T12:32:30.414Z,7.50
2022-11-23T12:35:30.996Z,7.70
2022-11-23T12:38:11.355Z,7.90
2022-11-23T12:40:47.508Z,8.10
2022-11-23T12:43:22.104Z,8.70
2022-11-23T12:46:09.150Z,12.10
2022-11-23T12:48:59.717Z,13.50
2022-11-23T12:51:35.873Z,12.00
2022-11-23T12:54:21.362Z,10.90
2022-11-23T12:56:59.370Z,10.00
2022-11-23T12:59:35.076Z,10.40
2022-11-23T13:02:08.521Z,10.40
2022-11-23T13:05:03.131Z,11.20
2022-11-23T13:08:02.032Z,12.40
2022-11-23T13:10:40.308Z,12.80
2022-11-23T13:13:29.503Z,12.50
2022-11-23T13:16:33.677Z,12.00
2022-11-23T13:19:16.619Z,12.30
2022-11-23T13:21:45.336Z,14.20
2022-11-23T13:24:33.795Z,14.10
2022-11-23T13:27:38.062Z,14.10
2022-11-23T13:30:21.446Z,14.00
2022-11-23T13:32:55.148Z,13.80
2022-11-23T13:36:05.201Z,13.50
2022-11-23T13:38:38.145Z,13.00
2022-11-23T13:41:55.162Z,12.40
2022-11-23T13:44:27.543Z,12.00
2022-11-23T13:47:19.672Z,10.60
2022-11-23T13:49:48.030Z,9.80
2022-11-23T13:52:30.969Z,9.20
2022-11-23T13:55:19.311Z,8.70
2022-11-23T13:58:06.952Z,8.40
2022-11-23T14:00:48.032Z,8.00
2022-11-23T14:03:55.024Z,7.70
2022-11-23T14:06:26.870Z,7.60
2022-11-23T14:09:00.680Z,7.40
2022-11-23T14:11:28.250Z,7.40
2022-11-23T14:14:00.409Z,7.40
2022-11-23T14:16:53.673Z,7.40
2022-11-23T14:19:27.549Z,7.30
2022-11-23T14:22:07.571Z,7.40
2022-11-23T14:25:02.220Z,7.30
2022-11-23T14:27:49.191Z,7.30
2022-11-23T14:30:23.638Z,7.20
2022-11-23T14:33:08.346Z,7.10
2022-11-23T14:35:45.601Z,6.90
2022-11-23T14:38:46.006Z,6.80
2022-11-23T14:41:17.043Z,6.70
2022-11-23T14:43:45.930Z,8.50
2022-11-23T14:46:18.587Z,6.50
2022-11-23T14:48:46.479Z,6.30
2022-11-23T14:51:18.472Z,6.50
2022-11-23T14:53:48.182Z,6.20
2022-11-23T14:56:29.756Z,6.20
2022-11-23T14:59:02.743Z,6.00
2022-11-23T15:01:30.512Z,6.00
2022-11-23T15:03:59.704Z,5.90
2022-11-23T15:06:31.739Z,5.90
2022-11-23T15:09:08.165Z,5.80
2022-11-23T15:11:37.129Z,5.70
2022-11-23T15:14:16.266Z,5.70
2022-11-23T15:17:06.460Z,5.60
2022-11-23T15:19:35.321Z,5.60
2022-11-23T15:22:11.940Z,5.50
2022-11-23T15:24:38.881Z,5.30
2022-11-23T15:27:12.377Z,5.30
2022-11-23T15:29:39.809Z,5.50
2022-11-23T15:32:31.575Z,5.20
2022-11-23T15:35:02.302Z,5.20
2022-11-23T15:37:31.125Z,5.40
2022-11-23T15:39:58.995Z,7.50
2022-11-23T15:42:27.267Z,5.00
2022-11-23T15:44:56.286Z,5.00
2022-11-23T15:47:28.988Z,5.10
2022-11-23T15:50:00.638Z,5.00
2022-11-23T15:52:30.064Z,5.00
2022-11-23T15:55:04.507Z,5.00
2022-11-23T15:57:35.651Z,5.00
2022-11-23T16:00:07.665Z,5.10
2022-11-23T16:02:41.148Z,4.70
2022-11-23T16:05:14.128Z,5.00
2022-11-23T16:07:52.997Z,5.10
2022-11-23T16:10:22.837Z,5.10
2022-11-23T16:12:52.995Z,5.10
2022-11-23T16:15:48.904Z,5.10
2022-11-23T16:18:25.134Z,5.00
2022-11-23T16:21:02.264Z,5.00
2022-11-23T16:23:44.808Z,4.90
2022-11-23T16:26:13.208Z,4.80
2022-11-23T16:28:48.482Z,4.80
2022-11-23T16:31:32.426Z,4.80
2022-11-23T16:34:00.108Z,5.10
2022-11-23T16:36:27.680Z,4.70
2022-11-23T16:38:58.595Z,4.70
2022-11-23T16:41:30.007Z,4.60
2022-11-23T16:43:57.478Z,4.50
2022-11-23T16:46:24.787Z,4.50
2022-11-23T16:48:53.665Z,4.10
2022-11-23T16:51:21.738Z,4.50
2022-11-23T16:56:36.773Z,4.40
2022-11-23T16:59:04.715Z,4.70
2022-11-23T17:01:32.409Z,4.30
2022-11-23T17:03:59.265Z,4.30
2022-11-23T17:06:26.030Z,4.40
2022-11-23T17:09:03.107Z,4.20
2022-11-23T17:11:34.910Z,4.20
2022-11-23T17:14:05.074Z,4.20
2022-11-23T17:16:33.373Z,4.40
2022-11-23T17:19:00.119Z,4.00
2022-11-23T17:21:27.582Z,4.10
2022-11-23T17:23:54.284Z,4.00
2022-11-23T17:26:33.546Z,4.10
2022-11-23T17:29:03.462Z,3.90
2022-11-23T17:31:33.060Z,4.00
2022-11-23T17:34:00.205Z,3.80
2022-11-23T17:36:31.446Z,3.70
2022-11-23T17:38:58.760Z,3.30
2022-11-23T17:41:25.483Z,4.00
2022-11-23T17:43:53.893Z,3.80
2022-11-23T17:46:23.740Z,3.80
2022-11-23T17:48:54.899Z,3.80
2022-11-23T17:51:22.627Z,3.70
2022-11-23T17:53:49.368Z,3.80
2022-11-23T17:56:25.577Z,3.70
2022-11-23T17:58:54.813Z,3.80
2022-11-23T18:01:24.231Z,3.80
2022-11-23T18:03:51.171Z,3.70
2022-11-23T18:06:20.347Z,3.70
2022-11-23T18:08:48.286Z,4.00
2022-11-23T18:11:15.305Z,3.60
2022-11-23T18:13:42.853Z,3.10
2022-11-23T18:16:11.571Z,3.60
2022-11-23T18:18:39.065Z,3.50
2022-11-23T18:21:06.263Z,3.50
2022-11-23T18:23:33.793Z,3.50
2022-11-23T18:26:01.356Z,3.40
2022-11-23T18:28:29.457Z,3.70
2022-11-23T18:30:56.713Z,3.50
2022-11-23T18:33:24.081Z,3.40
2022-11-23T18:35:53.979Z,3.50
2022-11-23T18:38:24.550Z,3.20
2022-11-23T18:40:51.392Z,3.40
2022-11-23T18:43:18.067Z,3.40
2022-11-23T18:45:44.800Z,3.40
2022-11-23T18:48:12.787Z,3.40
2022-11-23T18:50:39.973Z,3.40
2022-11-23T18:53:08.488Z,3.30
2022-11-23T18:55:35.648Z,3.30
2022-11-23T18:58:03.200Z,3.70
2022-11-23T19:00:29.910Z,3.20
2022-11-23T19:02:58.760Z,3.20
2022-11-23T19:05:27.491Z,3.20
2022-11-23T19:07:57.137Z,3.10
2022-11-23T19:10:25.549Z,3.10
2022-11-23T19:12:52.396Z,3.20
2022-11-23T19:15:19.101Z,3.20
2022-11-23T19:17:47.103Z,3.10
2022-11-23T19:20:13.948Z,3.10
2022-11-23T19:22:40.744Z,3.00
2022-11-23T19:25:10.440Z,3.00
2022-11-23T19:27:38.032Z,3.10
2022-11-23T19:30:07.956Z,3.00
2022-11-23T19:32:35.046Z,3.10
2022-11-23T19:35:01.729Z,2.90
2022-11-23T19:37:28.459Z,3.10
2022-11-23T19:39:55.378Z,3.00
2022-11-23T19:42:22.260Z,3.00
2022-11-23T19:44:49.703Z,3.00
2022-11-23T19:47:22.565Z,2.90
2022-11-23T19:49:49.629Z,2.90
2022-11-23T19:52:17.156Z,2.90
2022-11-23T19:54:44.181Z,3.10
2022-11-23T19:57:11.666Z,2.80
2022-11-23T19:59:43.155Z,2.80
2022-11-23T20:02:22.779Z,2.70
2022-11-23T20:05:01.290Z,2.70
2022-11-23T20:07:42.560Z,2.60
2022-11-23T20:10:24.926Z,2.70
2022-11-23T20:13:14.923Z,2.70
2022-11-23T20:15:45.060Z,3.90
2022-11-23T20:18:13.016Z,2.70
2022-11-23T20:20:45.440Z,2.70
2022-11-23T20:23:14.079Z,2.70
2022-11-23T20:25:42.982Z,2.90
2022-11-23T20:28:13.718Z,2.60
2022-11-23T20:30:42.604Z,2.60
2022-11-23T20:33:11.994Z,2.60
2022-11-23T20:35:43.259Z,2.60
2022-11-23T20:38:21.228Z,2.90
2022-11-23T20:40:50.931Z,2.60
2022-11-23T20:43:19.164Z,2.00
2022-11-23T20:45:49.307Z,2.60
2022-11-23T20:48:18.448Z,2.50
2022-11-23T20:50:45.868Z,2.50
2022-11-23T20:53:21.219Z,2.40
2022-11-23T20:55:49.427Z,5.40
2022-11-23T20:58:17.590Z,2.50
2022-11-23T21:00:48.729Z,2.40
2022-11-23T21:03:18.336Z,2.40
2022-11-23T21:05:46.177Z,2.50
2022-11-23T21:08:20.694Z,3.20
2022-11-23T21:11:09.112Z,2.40
2022-11-23T21:13:56.587Z,2.30
2022-11-23T21:16:23.345Z,2.30
2022-11-23T21:18:52.018Z,2.30
2022-11-23T21:21:19.585Z,2.00
2022-11-23T21:23:50.961Z,2.30
2022-11-23T21:26:19.032Z,2.30
2022-11-23T21:28:45.877Z,2.30
2022-11-23T21:31:14.256Z,2.20
2022-11-23T21:33:42.049Z,2.20
2022-11-23T21:36:11.223Z,2.20
2022-11-23T21:38:40.202Z,2.30
2022-11-23T21:41:09.573Z,2.30
2022-11-23T21:43:36.499Z,2.30
2022-11-23T21:46:05.835Z,2.30
2022-11-23T21:48:33.296Z,2.30
2022-11-23T21:51:01.336Z,2.10
2022-11-23T21:53:28.393Z,2.30
2022-11-23T21:56:00.707Z,2.30
2022-11-23T21:58:27.608Z,2.30
2022-11-23T22:00:57.746Z,2.30
2022-11-23T22:03:24.604Z,2.40
2022-11-23T22:05:58.088Z,2.40
2022-11-23T22:08:29.278Z,2.40
2022-11-23T22:10:57.533Z,2.40
2022-11-23T22:13:25.220Z,2.40
2022-11-23T22:15:52.352Z,2.40
2022-11-23T22:18:19.002Z,2.30
2022-11-23T22:20:45.919Z,2.40
2022-11-23T22:23:12.928Z,2.40
2022-11-23T22:25:42.936Z,2.40
2022-11-23T22:28:12.906Z,2.50
2022-11-23T22:30:39.928Z,2.50
2022-11-23T22:33:06.824Z,2.50
2022-11-23T22:35:33.646Z,2.50
2022-11-23T22:38:00.339Z,2.30
2022-11-23T22:40:32.532Z,2.60
2022-11-23T22:43:00.222Z,2.90
2022-11-23T22:45:27.647Z,2.60
2022-11-23T22:47:54.370Z,2.00
2022-11-23T22:52:48.303Z,2.60
2022-11-23T22:55:15.139Z,2.60
2022-11-23T22:57:41.852Z,2.70
2022-11-23T23:00:10.274Z,2.80
2022-11-23T23:02:38.500Z,2.70
2022-11-23T23:05:07.340Z,2.70
2022-11-23T23:07:34.391Z,3.20
2022-11-23T23:10:01.116Z,2.40
2022-11-23T23:12:28.239Z,2.70
2022-11-23T23:14:54.911Z,2.80
2022-11-23T23:17:21.743Z,4.00
2022-11-23T23:19:49.155Z,2.40
2022-11-23T23:22:15.801Z,2.90
2022-11-23T23:24:42.606Z,2.70
2022-11-23T23:27:10.197Z,2.70
2022-11-23T23:29:37.702Z,2.70
2022-11-23T23:32:05.064Z,3.40
2022-11-23T23:34:32.182Z,2.70
2022-11-23T23:37:00.520Z,2.70
2022-11-23T23:39:27.222Z,2.70
2022-11-23T23:41:53.981Z,1.90
2022-11-23T23:44:20.633Z,2.70
2022-11-23T23:46:47.306Z,2.70
2022-11-23T23:49:14.015Z,2.70
2022-11-23T23:51:40.799Z,2.70
2022-11-23T23:54:08.829Z,2.70
2022-11-23T23:56:35.620Z,2.80
2022-11-23T23:59:02.437Z,2.70
